sensor_id;sensor_type;location;lat;lon;timestamp;P1;durP1;ratioP1;P2;durP2;ratioP2
67429;SDS011;54298;52.076;5.264;2023-04-25T00:00:47;24.8;;;5.6;;
67429;SDS011;54298;52.076;5.264;2023-04-25T00:02:24;24.5;;;5.7;;
67429;SDS011;54298;52.076;5.264;2023-04-25T00:05:36;25.0;;;6.9;;
67429;SDS011;54298;52.076;5.264;2023-04-25T00:07:13;22.6;;;6.4;;
67429;SDS011;54298;52.076;5.264;2023-04-25T00:08:49;21.4;;;5.6;;
67429;SDS011;54298;52.076;5.264;2023-04-25T00:12:01;27.3;;;7.1;;
67429;SDS011;54298;52.076;5.264;2023-04-25T00:13:37;28.1;;;7.2;;
67429;SDS011;54298;52.076;5.264;2023-04-25T00:15:14;17.5;;;5.8;;
67429;SDS011;54298;52.076;5.264;2023-04-25T00:18:26;28.2;;;7.3;;
67429;SDS011;54298;52.076;5.264;2023-04-25T00:20:02;26.3;;;7.0;;
67429;SDS011;54298;52.076;5.264;2023-04-25T00:21:38;25.6;;;7.3;;
67429;SDS011;54298;52.076;5.264;2023-04-25T00:23:14;28.2;;;8.1;;
67429;SDS011;54298;52.076;5.264;2023-04-25T00:26:27;27.5;;;7.0;;
67429;SDS011;54298;52.076;5.264;2023-04-25T00:28:05;28.4;;;6.9;;
67429;SDS011;54298;52.076;5.264;2023-04-25T00:29:41;24.4;;;6.9;;
67429;SDS011;54298;52.076;5.264;2023-04-25T00:32:53;27.0;;;7.0;;
67429;SDS011;54298;52.076;5.264;2023-04-25T00:34:29;26.5;;;6.4;;
67429;SDS011;54298;52.076;5.264;2023-04-25T00:36:06;21.8;;;5.7;;
67429;SDS011;54298;52.076;5.264;2023-04-25T00:39:18;20.9;;;5.3;;
67429;SDS011;54298;52.076;5.264;2023-04-25T00:40:56;22.5;;;6.6;;
67429;SDS011;54298;52.076;5.264;2023-04-25T00:42:32;25.8;;;6.4;;
67429;SDS011;54298;52.076;5.264;2023-04-25T00:45:45;28.7;;;6.5;;
67429;SDS011;54298;52.076;5.264;2023-04-25T00:47:23;24.1;;;5.9;;
67429;SDS011;54298;52.076;5.264;2023-04-25T00:49:00;25.3;;;7.0;;
67429;SDS011;54298;52.076;5.264;2023-04-25T00:50:36;17.7;;;5.8;;
67429;SDS011;54298;52.076;5.264;2023-04-25T00:53:50;21.3;;;6.5;;
67429;SDS011;54298;52.076;5.264;2023-04-25T00:55:27;20.2;;;5.9;;
67429;SDS011;54298;52.076;5.264;2023-04-25T00:57:03;22.3;;;5.6;;
67429;SDS011;54298;52.076;5.264;2023-04-25T01:00:16;26.3;;;6.8;;
67429;SDS011;54298;52.076;5.264;2023-04-25T01:01:53;25.4;;;6.5;;
67429;SDS011;54298;52.076;5.264;2023-04-25T01:03:30;29.3;;;7.3;;
67429;SDS011;54298;52.076;5.264;2023-04-25T01:05:09;25.7;;;7.3;;
67429;SDS011;54298;52.076;5.264;2023-04-25T01:08:21;20.7;;;5.8;;
67429;SDS011;54298;52.076;5.264;2023-04-25T01:09:59;24.8;;;6.6;;
67429;SDS011;54298;52.076;5.264;2023-04-25T01:11:35;27.0;;;6.6;;
67429;SDS011;54298;52.076;5.264;2023-04-25T01:14:47;22.0;;;6.5;;
67429;SDS011;54298;52.076;5.264;2023-04-25T01:16:23;20.11;;;6.1;;
67429;SDS011;54298;52.076;5.264;2023-04-25T01:18:00;17.61;;;5.8;;
67429;SDS011;54298;52.076;5.264;2023-04-25T01:21:13;22.2;;;6.1;;
67429;SDS011;54298;52.076;5.264;2023-04-25T01:22:49;26.7;;;7.3;;
67429;SDS011;54298;52.076;5.264;2023-04-25T01:24:26;23.8;;;5.7;;
67429;SDS011;54298;52.076;5.264;2023-04-25T01:26:03;22.2;;;5.9;;
67429;SDS011;54298;52.076;5.264;2023-04-25T01:29:18;23.0;;;6.8;;
67429;SDS011;54298;52.076;5.264;2023-04-25T01:30:55;18.8;;;6.0;;
67429;SDS011;54298;52.076;5.264;2023-04-25T01:32:32;22.1;;;6.5;;
67429;SDS011;54298;52.076;5.264;2023-04-25T01:35:45;22.7;;;6.6;;
67429;SDS011;54298;52.076;5.264;2023-04-25T01:37:22;23.6;;;7.2;;
67429;SDS011;54298;52.076;5.264;2023-04-25T01:38:58;26.5;;;6.6;;
67429;SDS011;54298;52.076;5.264;2023-04-25T01:42:15;22.2;;;6.2;;
67429;SDS011;54298;52.076;5.264;2023-04-25T01:43:54;21.5;;;5.8;;
67429;SDS011;54298;52.076;5.264;2023-04-25T01:45:30;25.5;;;6.7;;
67429;SDS011;54298;52.076;5.264;2023-04-25T01:47:06;26.7;;;7.0;;
67429;SDS011;54298;52.076;5.264;2023-04-25T01:50:18;28.4;;;7.3;;
67429;SDS011;54298;52.076;5.264;2023-04-25T01:51:54;22.7;;;7.3;;
67429;SDS011;54298;52.076;5.264;2023-04-25T01:53:30;28.2;;;7.0;;
67429;SDS011;54298;52.076;5.264;2023-04-25T01:56:49;24.4;;;7.0;;
67429;SDS011;54298;52.076;5.264;2023-04-25T01:58:26;23.2;;;6.5;;
67429;SDS011;54298;52.076;5.264;2023-04-25T02:00:03;20.8;;;6.9;;
67429;SDS011;54298;52.076;5.264;2023-04-25T02:01:42;22.5;;;5.9;;
67429;SDS011;54298;52.076;5.264;2023-04-25T02:04:54;22.6;;;7.1;;
67429;SDS011;54298;52.076;5.264;2023-04-25T02:06:30;22.9;;;6.8;;
67429;SDS011;54298;52.076;5.264;2023-04-25T02:08:07;21.6;;;6.9;;
67429;SDS011;54298;52.076;5.264;2023-04-25T02:11:21;20.3;;;7.0;;
67429;SDS011;54298;52.076;5.264;2023-04-25T02:12:57;23.3;;;7.1;;
67429;SDS011;54298;52.076;5.264;2023-04-25T02:14:33;21.8;;;6.7;;
67429;SDS011;54298;52.076;5.264;2023-04-25T02:17:45;20.7;;;6.3;;
67429;SDS011;54298;52.076;5.264;2023-04-25T02:19:21;20.5;;;6.7;;
67429;SDS011;54298;52.076;5.264;2023-04-25T02:20:58;20.7;;;6.6;;
67429;SDS011;54298;52.076;5.264;2023-04-25T02:22:35;22.8;;;6.8;;
67429;SDS011;54298;52.076;5.264;2023-04-25T02:25:47;25.0;;;7.6;;
67429;SDS011;54298;52.076;5.264;2023-04-25T02:27:24;22.8;;;6.6;;
67429;SDS011;54298;52.076;5.264;2023-04-25T02:29:00;19.91;;;7.5;;
67429;SDS011;54298;52.076;5.264;2023-04-25T02:32:12;21.3;;;6.9;;
67429;SDS011;54298;52.076;5.264;2023-04-25T02:33:49;22.3;;;6.9;;
67429;SDS011;54298;52.076;5.264;2023-04-25T02:35:26;21.9;;;6.7;;
67429;SDS011;54298;52.076;5.264;2023-04-25T02:38:38;24.1;;;7.0;;
67429;SDS011;54298;52.076;5.264;2023-04-25T02:40:15;19.11;;;6.3;;
67429;SDS011;54298;52.076;5.264;2023-04-25T02:41:51;23.1;;;7.2;;
67429;SDS011;54298;52.076;5.264;2023-04-25T02:43:27;23.7;;;6.8;;
67429;SDS011;54298;52.076;5.264;2023-04-25T02:46:41;22.3;;;7.9;;
67429;SDS011;54298;52.076;5.264;2023-04-25T02:48:17;28.3;;;7.3;;
67429;SDS011;54298;52.076;5.264;2023-04-25T02:49:53;25.3;;;7.6;;
67429;SDS011;54298;52.076;5.264;2023-04-25T02:53:05;25.4;;;7.6;;
67429;SDS011;54298;52.076;5.264;2023-04-25T02:54:41;23.1;;;6.8;;
67429;SDS011;54298;52.076;5.264;2023-04-25T02:56:17;23.0;;;7.4;;
67429;SDS011;54298;52.076;5.264;2023-04-25T02:59:30;19.91;;;6.7;;
67429;SDS011;54298;52.076;5.264;2023-04-25T03:01:06;21.1;;;6.2;;
67429;SDS011;54298;52.076;5.264;2023-04-25T03:02:42;22.7;;;6.8;;
67429;SDS011;54298;52.076;5.264;2023-04-25T03:05:54;21.8;;;6.2;;
67429;SDS011;54298;52.076;5.264;2023-04-25T03:07:30;18.3;;;6.5;;
67429;SDS011;54298;52.076;5.264;2023-04-25T03:09:06;18.3;;;6.5;;
67429;SDS011;54298;52.076;5.264;2023-04-25T03:10:43;23.8;;;7.3;;
67429;SDS011;54298;52.076;5.264;2023-04-25T03:13:56;22.2;;;6.5;;
67429;SDS011;54298;52.076;5.264;2023-04-25T03:15:32;21.9;;;7.5;;
67429;SDS011;54298;52.076;5.264;2023-04-25T03:17:08;20.9;;;6.4;;
67429;SDS011;54298;52.076;5.264;2023-04-25T03:20:20;20.3;;;6.3;;
67429;SDS011;54298;52.076;5.264;2023-04-25T03:21:56;20.0;;;6.1;;
67429;SDS011;54298;52.076;5.264;2023-04-25T03:23:32;25.8;;;6.7;;
67429;SDS011;54298;52.076;5.264;2023-04-25T03:26:45;22.2;;;6.1;;
67429;SDS011;54298;52.076;5.264;2023-04-25T03:28:21;18.0;;;6.3;;
67429;SDS011;54298;52.076;5.264;2023-04-25T03:29:58;23.3;;;6.2;;
67429;SDS011;54298;52.076;5.264;2023-04-25T03:31:34;22.8;;;6.7;;
67429;SDS011;54298;52.076;5.264;2023-04-25T03:34:46;17.0;;;5.3;;
67429;SDS011;54298;52.076;5.264;2023-04-25T03:36:22;20.9;;;6.3;;
67429;SDS011;54298;52.076;5.264;2023-04-25T03:37:58;21.3;;;6.8;;
67429;SDS011;54298;52.076;5.264;2023-04-25T03:41:12;24.7;;;6.8;;
67429;SDS011;54298;52.076;5.264;2023-04-25T03:42:48;23.8;;;6.9;;
67429;SDS011;54298;52.076;5.264;2023-04-25T03:44:24;18.3;;;5.11;;
67429;SDS011;54298;52.076;5.264;2023-04-25T03:47:36;16.3;;;5.2;;
67429;SDS011;54298;52.076;5.264;2023-04-25T03:49:13;14.9;;;4.0;;
67429;SDS011;54298;52.076;5.264;2023-04-25T03:50:48;11.6;;;3.5;;
67429;SDS011;54298;52.076;5.264;2023-04-25T03:54:01;11.4;;;3.6;;
67429;SDS011;54298;52.076;5.264;2023-04-25T03:55:37;15.6;;;4.41;;
67429;SDS011;54298;52.076;5.264;2023-04-25T03:57:13;16.3;;;4.41;;
67429;SDS011;54298;52.076;5.264;2023-04-25T03:58:49;13.9;;;3.5;;
67429;SDS011;54298;52.076;5.264;2023-04-25T04:02:01;15.8;;;3.6;;
67429;SDS011;54298;52.076;5.264;2023-04-25T04:03:37;13.2;;;3.6;;
67429;SDS011;54298;52.076;5.264;2023-04-25T04:05:14;10.9;;;3.8;;
67429;SDS011;54298;52.076;5.264;2023-04-25T04:08:26;10.8;;;3.4;;
67429;SDS011;54298;52.076;5.264;2023-04-25T04:10:02;15.5;;;3.7;;
67429;SDS011;54298;52.076;5.264;2023-04-25T04:11:38;14.1;;;4.1;;
67429;SDS011;54298;52.076;5.264;2023-04-25T04:14:50;13.2;;;3.2;;
67429;SDS011;54298;52.076;5.264;2023-04-25T04:16:26;11.9;;;3.4;;
67429;SDS011;54298;52.076;5.264;2023-04-25T04:18:03;16.0;;;3.8;;
67429;SDS011;54298;52.076;5.264;2023-04-25T04:19:39;13.1;;;3.4;;
67429;SDS011;54298;52.076;5.264;2023-04-25T04:22:51;17.3;;;3.8;;
67429;SDS011;54298;52.076;5.264;2023-04-25T04:24:27;15.5;;;4.2;;
67429;SDS011;54298;52.076;5.264;2023-04-25T04:26:03;12.8;;;3.7;;
67429;SDS011;54298;52.076;5.264;2023-04-25T04:29:16;17.61;;;3.7;;
67429;SDS011;54298;52.076;5.264;2023-04-25T04:30:52;12.5;;;3.2;;
67429;SDS011;54298;52.076;5.264;2023-04-25T04:32:29;12.9;;;3.8;;
67429;SDS011;54298;52.076;5.264;2023-04-25T04:35:41;12.3;;;3.1;;
67429;SDS011;54298;52.076;5.264;2023-04-25T04:37:17;13.6;;;3.7;;
67429;SDS011;54298;52.076;5.264;2023-04-25T04:38:53;14.7;;;4.1;;
67429;SDS011;54298;52.076;5.264;2023-04-25T04:42:06;11.1;;;3.4;;
67429;SDS011;54298;52.076;5.264;2023-04-25T04:43:42;10.21;;;3.1;;
67429;SDS011;54298;52.076;5.264;2023-04-25T04:45:19;12.9;;;4.1;;
67429;SDS011;54298;52.076;5.264;2023-04-25T04:46:55;11.5;;;3.3;;
67429;SDS011;54298;52.076;5.264;2023-04-25T04:50:09;13.1;;;3.6;;
67429;SDS011;54298;52.076;5.264;2023-04-25T04:51:46;14.8;;;3.5;;
67429;SDS011;54298;52.076;5.264;2023-04-25T04:53:22;12.5;;;3.7;;
67429;SDS011;54298;52.076;5.264;2023-04-25T04:56:34;12.9;;;4.1;;
67429;SDS011;54298;52.076;5.264;2023-04-25T04:58:11;13.6;;;3.8;;
67429;SDS011;54298;52.076;5.264;2023-04-25T04:59:47;12.0;;;3.8;;
67429;SDS011;54298;52.076;5.264;2023-04-25T05:04:36;15.6;;;4.1;;
67429;SDS011;54298;52.076;5.264;2023-04-25T05:06:12;14.8;;;3.6;;
67429;SDS011;54298;52.076;5.264;2023-04-25T05:07:48;18.2;;;4.0;;
67429;SDS011;54298;52.076;5.264;2023-04-25T05:11:02;15.8;;;3.8;;
67429;SDS011;54298;52.076;5.264;2023-04-25T05:12:38;14.6;;;3.8;;
67429;SDS011;54298;52.076;5.264;2023-04-25T05:14:14;15.3;;;4.1;;
67429;SDS011;54298;52.076;5.264;2023-04-25T05:17:26;19.7;;;8.5;;
67429;SDS011;54298;52.076;5.264;2023-04-25T05:19:02;24.7;;;5.7;;
67429;SDS011;54298;52.076;5.264;2023-04-25T05:20:39;15.4;;;3.5;;
67429;SDS011;54298;52.076;5.264;2023-04-25T05:23:51;20.0;;;3.7;;
67429;SDS011;54298;52.076;5.264;2023-04-25T05:25:27;14.3;;;3.6;;
67429;SDS011;54298;52.076;5.264;2023-04-25T05:27:03;14.4;;;3.1;;
67429;SDS011;54298;52.076;5.264;2023-04-25T05:31:51;15.0;;;3.9;;
67429;SDS011;54298;52.076;5.264;2023-04-25T05:33:28;9.4;;;3.2;;
67429;SDS011;54298;52.076;5.264;2023-04-25T05:35:04;14.6;;;3.6;;
67429;SDS011;54298;52.076;5.264;2023-04-25T05:38:17;14.6;;;4.0;;
67429;SDS011;54298;52.076;5.264;2023-04-25T05:39:53;15.0;;;4.3;;
67429;SDS011;54298;52.076;5.264;2023-04-25T05:41:29;14.9;;;4.0;;
67429;SDS011;54298;52.076;5.264;2023-04-25T05:44:42;13.0;;;3.7;;
67429;SDS011;54298;52.076;5.264;2023-04-25T05:46:18;14.7;;;3.5;;
67429;SDS011;54298;52.076;5.264;2023-04-25T05:47:54;12.1;;;4.5;;
67429;SDS011;54298;52.076;5.264;2023-04-25T05:51:06;14.6;;;3.4;;
67429;SDS011;54298;52.076;5.264;2023-04-25T05:52:43;19.7;;;9.9;;
67429;SDS011;54298;52.076;5.264;2023-04-25T05:54:20;25.5;;;13.3;;
67429;SDS011;54298;52.076;5.264;2023-04-25T05:55:55;9.81;;;3.2;;
67429;SDS011;54298;52.076;5.264;2023-04-25T05:59:07;11.4;;;2.9;;
67429;SDS011;54298;52.076;5.264;2023-04-25T06:00:43;12.5;;;3.4;;
67429;SDS011;54298;52.076;5.264;2023-04-25T06:02:20;14.0;;;3.4;;
67429;SDS011;54298;52.076;5.264;2023-04-25T06:07:09;9.5;;;3.0;;
67429;SDS011;54298;52.076;5.264;2023-04-25T06:08:45;16.2;;;3.8;;
67429;SDS011;54298;52.076;5.264;2023-04-25T06:11:57;12.7;;;3.3;;
67429;SDS011;54298;52.076;5.264;2023-04-25T06:13:33;11.7;;;3.1;;
67429;SDS011;54298;52.076;5.264;2023-04-25T06:15:10;13.9;;;3.5;;
67429;SDS011;54298;52.076;5.264;2023-04-25T06:16:46;15.2;;;3.8;;
67429;SDS011;54298;52.076;5.264;2023-04-25T06:19:58;14.2;;;3.6;;
67429;SDS011;54298;52.076;5.264;2023-04-25T06:21:34;13.8;;;3.1;;
67429;SDS011;54298;52.076;5.264;2023-04-25T06:23:11;12.9;;;3.8;;
67429;SDS011;54298;52.076;5.264;2023-04-25T06:26:23;12.9;;;3.5;;
67429;SDS011;54298;52.076;5.264;2023-04-25T06:28:00;11.5;;;3.0;;
67429;SDS011;54298;52.076;5.264;2023-04-25T06:29:36;14.6;;;3.4;;
67429;SDS011;54298;52.076;5.264;2023-04-25T06:32:48;17.5;;;3.8;;
67429;SDS011;54298;52.076;5.264;2023-04-25T06:34:24;15.5;;;3.7;;
67429;SDS011;54298;52.076;5.264;2023-04-25T06:36:00;20.2;;;3.9;;
67429;SDS011;54298;52.076;5.264;2023-04-25T06:39:13;17.11;;;4.1;;
67429;SDS011;54298;52.076;5.264;2023-04-25T06:40:49;16.3;;;3.9;;
67429;SDS011;54298;52.076;5.264;2023-04-25T06:42:25;13.1;;;4.0;;
67429;SDS011;54298;52.076;5.264;2023-04-25T06:44:01;17.0;;;4.41;;
67429;SDS011;54298;52.076;5.264;2023-04-25T06:47:13;18.11;;;4.0;;
67429;SDS011;54298;52.076;5.264;2023-04-25T06:48:50;16.2;;;4.1;;
67429;SDS011;54298;52.076;5.264;2023-04-25T06:50:26;12.5;;;3.5;;
67429;SDS011;54298;52.076;5.264;2023-04-25T06:53:39;15.1;;;4.0;;
67429;SDS011;54298;52.076;5.264;2023-04-25T06:55:16;14.7;;;3.8;;
67429;SDS011;54298;52.076;5.264;2023-04-25T06:56:52;17.41;;;4.2;;
67429;SDS011;54298;52.076;5.264;2023-04-25T07:00:05;17.2;;;4.2;;
67429;SDS011;54298;52.076;5.264;2023-04-25T07:01:43;18.41;;;3.9;;
67429;SDS011;54298;52.076;5.264;2023-04-25T07:03:19;16.7;;;3.6;;
67429;SDS011;54298;52.076;5.264;2023-04-25T07:04:55;19.5;;;4.41;;
67429;SDS011;54298;52.076;5.264;2023-04-25T07:08:09;16.7;;;3.6;;
67429;SDS011;54298;52.076;5.264;2023-04-25T07:09:45;17.11;;;4.0;;
67429;SDS011;54298;52.076;5.264;2023-04-25T07:11:21;16.7;;;3.5;;
67429;SDS011;54298;52.076;5.264;2023-04-25T07:14:33;15.7;;;3.9;;
67429;SDS011;54298;52.076;5.264;2023-04-25T07:16:09;16.11;;;3.6;;
67429;SDS011;54298;52.076;5.264;2023-04-25T07:17:46;20.7;;;4.5;;
67429;SDS011;54298;52.076;5.264;2023-04-25T07:20:58;17.91;;;4.0;;
67429;SDS011;54298;52.076;5.264;2023-04-25T07:22:34;14.5;;;3.3;;
67429;SDS011;54298;52.076;5.264;2023-04-25T07:24:10;15.9;;;3.7;;
67429;SDS011;54298;52.076;5.264;2023-04-25T07:27:22;13.9;;;3.7;;
67429;SDS011;54298;52.076;5.264;2023-04-25T07:28:58;15.2;;;3.3;;
67429;SDS011;54298;52.076;5.264;2023-04-25T07:30:35;17.8;;;3.3;;
67429;SDS011;54298;52.076;5.264;2023-04-25T07:32:11;20.3;;;3.9;;
67429;SDS011;54298;52.076;5.264;2023-04-25T07:35:23;15.2;;;2.8;;
67429;SDS011;54298;52.076;5.264;2023-04-25T07:36:59;18.91;;;3.5;;
67429;SDS011;54298;52.076;5.264;2023-04-25T07:38:35;12.7;;;3.1;;
67429;SDS011;54298;52.076;5.264;2023-04-25T07:41:48;15.1;;;3.0;;
67429;SDS011;54298;52.076;5.264;2023-04-25T07:43:25;13.9;;;3.1;;
67429;SDS011;54298;52.076;5.264;2023-04-25T07:45:01;14.1;;;3.0;;
67429;SDS011;54298;52.076;5.264;2023-04-25T07:48:16;10.8;;;3.1;;
67429;SDS011;54298;52.076;5.264;2023-04-25T07:49:53;13.4;;;3.1;;
67429;SDS011;54298;52.076;5.264;2023-04-25T07:51:29;13.9;;;3.1;;
67429;SDS011;54298;52.076;5.264;2023-04-25T07:53:05;15.0;;;3.0;;
67429;SDS011;54298;52.076;5.264;2023-04-25T07:56:18;14.7;;;3.4;;
67429;SDS011;54298;52.076;5.264;2023-04-25T07:57:54;16.3;;;3.8;;
67429;SDS011;54298;52.076;5.264;2023-04-25T07:59:30;12.9;;;3.0;;
67429;SDS011;54298;52.076;5.264;2023-04-25T08:02:42;17.91;;;3.3;;
67429;SDS011;54298;52.076;5.264;2023-04-25T08:04:18;15.5;;;3.2;;
67429;SDS011;54298;52.076;5.264;2023-04-25T08:05:54;11.2;;;3.0;;
67429;SDS011;54298;52.076;5.264;2023-04-25T08:09:07;12.4;;;2.9;;
67429;SDS011;54298;52.076;5.264;2023-04-25T08:10:43;13.5;;;2.9;;
67429;SDS011;54298;52.076;5.264;2023-04-25T08:12:19;12.5;;;3.1;;
67429;SDS011;54298;52.076;5.264;2023-04-25T08:13:55;10.8;;;2.5;;
67429;SDS011;54298;52.076;5.264;2023-04-25T08:17:07;11.9;;;2.9;;
67429;SDS011;54298;52.076;5.264;2023-04-25T08:18:44;16.8;;;3.1;;
67429;SDS011;54298;52.076;5.264;2023-04-25T08:20:21;12.2;;;2.9;;
67429;SDS011;54298;52.076;5.264;2023-04-25T08:23:33;13.8;;;2.7;;
67429;SDS011;54298;52.076;5.264;2023-04-25T08:25:09;13.4;;;3.1;;
67429;SDS011;54298;52.076;5.264;2023-04-25T08:26:45;13.7;;;2.9;;
67429;SDS011;54298;52.076;5.264;2023-04-25T08:29:57;16.61;;;3.0;;
67429;SDS011;54298;52.076;5.264;2023-04-25T08:31:33;15.8;;;3.3;;
67429;SDS011;54298;52.076;5.264;2023-04-25T08:33:09;12.7;;;3.1;;
67429;SDS011;54298;52.076;5.264;2023-04-25T08:36:22;13.8;;;3.0;;
67429;SDS011;54298;52.076;5.264;2023-04-25T08:37:58;13.2;;;2.8;;
67429;SDS011;54298;52.076;5.264;2023-04-25T08:39:34;12.3;;;3.1;;
67429;SDS011;54298;52.076;5.264;2023-04-25T08:41:10;13.8;;;2.7;;
67429;SDS011;54298;52.076;5.264;2023-04-25T08:44:25;9.71;;;3.1;;
67429;SDS011;54298;52.076;5.264;2023-04-25T08:46:02;13.6;;;3.5;;
67429;SDS011;54298;52.076;5.264;2023-04-25T08:47:38;10.9;;;2.8;;
67429;SDS011;54298;52.076;5.264;2023-04-25T08:50:53;10.9;;;2.8;;
67429;SDS011;54298;52.076;5.264;2023-04-25T08:52:32;12.3;;;2.6;;
67429;SDS011;54298;52.076;5.264;2023-04-25T08:54:13;10.21;;;2.5;;
67429;SDS011;54298;52.076;5.264;2023-04-25T08:55:50;8.1;;;2.8;;
67429;SDS011;54298;52.076;5.264;2023-04-25T08:59:06;9.1;;;2.4;;
67429;SDS011;54298;52.076;5.264;2023-04-25T09:00:43;12.2;;;2.4;;
67429;SDS011;54298;52.076;5.264;2023-04-25T09:02:21;7.6;;;2.21;;
67429;SDS011;54298;52.076;5.264;2023-04-25T09:05:33;9.1;;;2.21;;
67429;SDS011;54298;52.076;5.264;2023-04-25T09:07:10;9.1;;;2.5;;
67429;SDS011;54298;52.076;5.264;2023-04-25T09:08:46;7.7;;;2.1;;
67429;SDS011;54298;52.076;5.264;2023-04-25T09:10:25;11.1;;;2.6;;
67429;SDS011;54298;52.076;5.264;2023-04-25T09:13:40;7.3;;;2.0;;
67429;SDS011;54298;52.076;5.264;2023-04-25T09:15:16;10.5;;;3.7;;
67429;SDS011;54298;52.076;5.264;2023-04-25T09:17:00;9.5;;;2.4;;
67429;SDS011;54298;52.076;5.264;2023-04-25T09:20:13;11.3;;;2.1;;
67429;SDS011;54298;52.076;5.264;2023-04-25T09:21:49;7.4;;;2.0;;
67429;SDS011;54298;52.076;5.264;2023-04-25T09:23:26;7.2;;;1.7;;
67429;SDS011;54298;52.076;5.264;2023-04-25T09:25:03;8.1;;;2.21;;
67429;SDS011;54298;52.076;5.264;2023-04-25T09:28:23;9.71;;;2.1;;
67429;SDS011;54298;52.076;5.264;2023-04-25T09:30:00;7.1;;;1.7;;
67429;SDS011;54298;52.076;5.264;2023-04-25T09:31:36;7.9;;;1.8;;
67429;SDS011;54298;52.076;5.264;2023-04-25T09:34:50;9.5;;;2.1;;
67429;SDS011;54298;52.076;5.264;2023-04-25T09:36:29;5.6;;;1.8;;
67429;SDS011;54298;52.076;5.264;2023-04-25T09:38:07;6.3;;;1.8;;
67429;SDS011;54298;52.076;5.264;2023-04-25T09:39:44;9.5;;;2.6;;
67429;SDS011;54298;52.076;5.264;2023-04-25T09:42:59;6.8;;;1.6;;
67429;SDS011;54298;52.076;5.264;2023-04-25T09:44:35;7.0;;;1.9;;
67429;SDS011;54298;52.076;5.264;2023-04-25T09:46:12;8.5;;;1.9;;
67429;SDS011;54298;52.076;5.264;2023-04-25T09:49:25;7.2;;;2.21;;
67429;SDS011;54298;52.076;5.264;2023-04-25T09:51:03;7.5;;;2.1;;
67429;SDS011;54298;52.076;5.264;2023-04-25T09:52:42;8.5;;;2.21;;
67429;SDS011;54298;52.076;5.264;2023-04-25T09:54:19;11.1;;;2.6;;
67429;SDS011;54298;52.076;5.264;2023-04-25T09:57:32;7.6;;;2.31;;
67429;SDS011;54298;52.076;5.264;2023-04-25T09:59:08;10.9;;;2.7;;
67429;SDS011;54298;52.076;5.264;2023-04-25T10:00:46;7.4;;;2.21;;
67429;SDS011;54298;52.076;5.264;2023-04-25T10:04:03;9.21;;;2.6;;
67429;SDS011;54298;52.076;5.264;2023-04-25T10:05:42;9.21;;;2.31;;
67429;SDS011;54298;52.076;5.264;2023-04-25T10:07:19;9.81;;;2.5;;
67429;SDS011;54298;52.076;5.264;2023-04-25T10:08:57;9.31;;;2.4;;
67429;SDS011;54298;52.076;5.264;2023-04-25T10:12:12;12.4;;;2.5;;
67429;SDS011;54298;52.076;5.264;2023-04-25T10:13:48;11.2;;;2.5;;
67429;SDS011;54298;52.076;5.264;2023-04-25T10:15:26;10.5;;;2.7;;
67429;SDS011;54298;52.076;5.264;2023-04-25T10:18:39;9.71;;;2.31;;
67429;SDS011;54298;52.076;5.264;2023-04-25T10:20:15;9.71;;;2.4;;
67429;SDS011;54298;52.076;5.264;2023-04-25T10:21:52;11.1;;;2.8;;
67429;SDS011;54298;52.076;5.264;2023-04-25T10:25:11;7.8;;;2.21;;
67429;SDS011;54298;52.076;5.264;2023-04-25T10:26:48;9.6;;;2.6;;
67429;SDS011;54298;52.076;5.264;2023-04-25T10:28:26;9.31;;;2.21;;
67429;SDS011;54298;52.076;5.264;2023-04-25T10:30:02;11.8;;;2.6;;
67429;SDS011;54298;52.076;5.264;2023-04-25T10:33:29;10.1;;;2.4;;
67429;SDS011;54298;52.076;5.264;2023-04-25T10:35:11;9.4;;;2.6;;
67429;SDS011;54298;52.076;5.264;2023-04-25T10:36:49;9.71;;;2.8;;
67429;SDS011;54298;52.076;5.264;2023-04-25T10:38:27;10.8;;;2.4;;
67429;SDS011;54298;52.076;5.264;2023-04-25T10:41:45;10.9;;;2.31;;
67429;SDS011;54298;52.076;5.264;2023-04-25T10:43:33;8.4;;;2.4;;
67429;SDS011;54298;52.076;5.264;2023-04-25T10:45:15;8.6;;;2.31;;
67429;SDS011;54298;52.076;5.264;2023-04-25T10:46:51;8.6;;;2.21;;
67429;SDS011;54298;52.076;5.264;2023-04-25T10:50:05;8.31;;;2.4;;
67429;SDS011;54298;52.076;5.264;2023-04-25T10:53:19;10.21;;;2.5;;
67429;SDS011;54298;52.076;5.264;2023-04-25T10:54:59;8.1;;;2.9;;
67429;SDS011;54298;52.076;5.264;2023-04-25T10:58:20;7.0;;;1.9;;
67429;SDS011;54298;52.076;5.264;2023-04-25T10:59:59;6.4;;;2.0;;
67429;SDS011;54298;52.076;5.264;2023-04-25T11:01:41;8.2;;;1.8;;
67429;SDS011;54298;52.076;5.264;2023-04-25T11:04:57;6.7;;;1.9;;
67429;SDS011;54298;52.076;5.264;2023-04-25T11:06:40;8.0;;;1.7;;
67429;SDS011;54298;52.076;5.264;2023-04-25T11:08:37;8.4;;;2.31;;
67429;SDS011;54298;52.076;5.264;2023-04-25T11:10:26;7.1;;;1.9;;
67429;SDS011;54298;52.076;5.264;2023-04-25T11:12:03;6.6;;;2.21;;
67429;SDS011;54298;52.076;5.264;2023-04-25T11:15:16;7.4;;;1.9;;
67429;SDS011;54298;52.076;5.264;2023-04-25T11:16:53;7.0;;;2.0;;
67429;SDS011;54298;52.076;5.264;2023-04-25T11:18:28;8.0;;;2.1;;
67429;SDS011;54298;52.076;5.264;2023-04-25T11:20:05;7.1;;;2.21;;
67429;SDS011;54298;52.076;5.264;2023-04-25T11:23:19;7.0;;;1.8;;
67429;SDS011;54298;52.076;5.264;2023-04-25T11:24:55;7.2;;;2.1;;
67429;SDS011;54298;52.076;5.264;2023-04-25T11:26:31;8.81;;;1.8;;
67429;SDS011;54298;52.076;5.264;2023-04-25T11:29:43;7.0;;;1.9;;
67429;SDS011;54298;52.076;5.264;2023-04-25T11:31:20;10.6;;;2.1;;
67429;SDS011;54298;52.076;5.264;2023-04-25T11:32:57;9.21;;;2.1;;
67429;SDS011;54298;52.076;5.264;2023-04-25T11:36:10;8.6;;;1.9;;
67429;SDS011;54298;52.076;5.264;2023-04-25T11:37:46;6.9;;;1.8;;
67429;SDS011;54298;52.076;5.264;2023-04-25T11:39:23;7.3;;;1.7;;
67429;SDS011;54298;52.076;5.264;2023-04-25T11:41:00;8.0;;;2.0;;
67429;SDS011;54298;52.076;5.264;2023-04-25T11:44:15;6.8;;;1.8;;
67429;SDS011;54298;52.076;5.264;2023-04-25T11:45:53;5.9;;;1.6;;
67429;SDS011;54298;52.076;5.264;2023-04-25T11:47:29;8.9;;;2.1;;
67429;SDS011;54298;52.076;5.264;2023-04-25T11:50:41;7.7;;;2.31;;
67429;SDS011;54298;52.076;5.264;2023-04-25T11:52:17;6.4;;;1.8;;
67429;SDS011;54298;52.076;5.264;2023-04-25T11:53:53;6.7;;;1.8;;
67429;SDS011;54298;52.076;5.264;2023-04-25T11:57:05;6.5;;;1.9;;
67429;SDS011;54298;52.076;5.264;2023-04-25T11:58:59;7.5;;;1.9;;
67429;SDS011;54298;52.076;5.264;2023-04-25T12:00:37;9.9;;;2.31;;
67429;SDS011;54298;52.076;5.264;2023-04-25T12:02:23;8.2;;;2.21;;
67429;SDS011;54298;52.076;5.264;2023-04-25T12:04:10;8.2;;;2.21;;
67429;SDS011;54298;52.076;5.264;2023-04-25T12:07:38;4.8;;;1.6;;
67429;SDS011;54298;52.076;5.264;2023-04-25T12:09:15;9.31;;;1.7;;
67429;SDS011;54298;52.076;5.264;2023-04-25T12:10:55;7.0;;;1.9;;
67429;SDS011;54298;52.076;5.264;2023-04-25T12:12:31;8.71;;;2.21;;
67429;SDS011;54298;52.076;5.264;2023-04-25T12:15:44;7.7;;;1.9;;
67429;SDS011;54298;52.076;5.264;2023-04-25T12:17:20;6.7;;;1.7;;
67429;SDS011;54298;52.076;5.264;2023-04-25T12:18:58;6.4;;;1.5;;
67429;SDS011;54298;52.076;5.264;2023-04-25T12:22:18;4.8;;;1.7;;
67429;SDS011;54298;52.076;5.264;2023-04-25T12:23:56;6.0;;;1.7;;
67429;SDS011;54298;52.076;5.264;2023-04-25T12:25:34;8.2;;;1.8;;
67429;SDS011;54298;52.076;5.264;2023-04-25T12:27:13;5.11;;;1.7;;
67429;SDS011;54298;52.076;5.264;2023-04-25T12:30:27;4.7;;;1.5;;
67429;SDS011;54298;52.076;5.264;2023-04-25T12:32:03;6.2;;;1.5;;
67429;SDS011;54298;52.076;5.264;2023-04-25T12:33:39;6.7;;;1.7;;
67429;SDS011;54298;52.076;5.264;2023-04-25T12:36:52;5.6;;;1.7;;
67429;SDS011;54298;52.076;5.264;2023-04-25T12:38:29;6.3;;;1.7;;
67429;SDS011;54298;52.076;5.264;2023-04-25T12:40:07;4.8;;;1.7;;
67429;SDS011;54298;52.076;5.264;2023-04-25T12:41:44;7.1;;;1.7;;
67429;SDS011;54298;52.076;5.264;2023-04-25T12:44:57;4.61;;;1.7;;
67429;SDS011;54298;52.076;5.264;2023-04-25T12:46:33;5.11;;;1.5;;
67429;SDS011;54298;52.076;5.264;2023-04-25T12:48:09;7.3;;;1.8;;
67429;SDS011;54298;52.076;5.264;2023-04-25T12:51:22;7.0;;;2.0;;
67429;SDS011;54298;52.076;5.264;2023-04-25T12:52:58;6.2;;;1.6;;
67429;SDS011;54298;52.076;5.264;2023-04-25T12:54:34;4.91;;;1.7;;
67429;SDS011;54298;52.076;5.264;2023-04-25T12:57:46;6.1;;;1.9;;